createdAt,value
2018-06-08T00:00:55.145Z,25.70
2018-06-08T00:03:28.419Z,25.17
2018-06-08T00:06:01.566Z,22.60
2018-06-08T00:08:30.899Z,23.27
2018-06-08T07:49:46.759Z,20.73
2018-06-08T07:52:15.815Z,24.13
2018-06-08T07:54:44.905Z,24.20
2018-06-08T07:57:13.818Z,23.13
2018-06-08T07:59:42.761Z,23.57
2018-06-08T08:02:11.744Z,22.67
2018-06-08T08:04:40.618Z,22.27
2018-06-08T08:07:09.640Z,22.57
2018-06-08T08:09:38.706Z,22.53
2018-06-08T08:12:07.631Z,22.47
2018-06-08T08:14:36.623Z,23.03
2018-06-08T08:17:05.546Z,23.53
2018-06-08T08:19:34.726Z,24.03
2018-06-08T08:22:03.778Z,23.10
2018-06-08T08:24:32.811Z,22.13
2018-06-08T08:27:01.931Z,22.60
2018-06-08T08:29:31.308Z,22.13
2018-06-08T08:32:00.654Z,22.60
2018-06-08T08:34:30.389Z,22.60
2018-06-08T08:37:00.605Z,22.97
2018-06-08T08:39:30.425Z,22.47
2018-06-08T08:42:13.023Z,23.60
2018-06-08T08:44:47.887Z,23.13
2018-06-08T08:47:17.653Z,23.87
2018-06-08T08:49:47.447Z,23.10
2018-06-08T08:52:17.094Z,22.33
2018-06-08T08:54:46.678Z,22.27
2018-06-08T08:57:16.312Z,21.40
2018-06-08T08:59:48.430Z,21.73
2018-06-08T09:02:18.700Z,24.40
2018-06-08T09:04:49.602Z,25.20
2018-06-08T09:07:18.984Z,25.07
2018-06-08T12:59:09.511Z,22.00
2018-06-08T13:01:38.188Z,21.47
2018-06-08T13:04:07.364Z,20.90
2018-06-08T13:06:36.376Z,19.17
2018-06-08T13:09:07.410Z,17.60
2018-06-08T13:11:37.112Z,21.83
2018-06-08T13:14:06.129Z,19.80
2018-06-08T13:16:35.129Z,19.47
2018-06-08T13:19:04.167Z,17.00
2018-06-08T13:21:34.525Z,16.67
2018-06-08T13:24:03.514Z,16.20
2018-06-08T13:26:32.537Z,15.23
2018-06-08T13:29:01.464Z,14.70
2018-06-08T13:31:30.349Z,15.07
2018-06-08T13:33:59.232Z,13.63
2018-06-08T13:36:28.141Z,13.50
2018-06-08T13:38:57.081Z,13.80
2018-06-08T13:41:26.783Z,11.60
2018-06-08T13:43:55.782Z,12.60
2018-06-08T13:46:35.749Z,10.73
2018-06-08T13:49:04.378Z,11.83
2018-06-08T13:51:33.276Z,10.60
2018-06-08T13:54:04.523Z,9.60
2018-06-08T13:56:33.619Z,10.03
2018-06-08T13:59:02.484Z,15.33
2018-06-08T14:01:31.411Z,9.93
2018-06-08T14:04:00.290Z,11.83
2018-06-08T14:06:29.204Z,11.43
2018-06-08T14:08:58.181Z,12.00
2018-06-08T14:11:27.084Z,13.03
2018-06-08T14:13:56.038Z,10.80
2018-06-08T14:16:25.038Z,11.23
2018-06-08T14:18:54.015Z,11.80
2018-06-08T14:21:22.907Z,13.70
2018-06-08T14:23:51.792Z,10.30
2018-06-08T14:26:20.723Z,10.73
2018-06-08T14:28:49.606Z,11.73
2018-06-08T14:31:18.498Z,14.30
2018-06-08T14:33:47.410Z,10.33
2018-06-08T14:36:16.262Z,14.33
2018-06-08T14:38:45.197Z,10.73
2018-06-08T14:41:14.085Z,11.33
2018-06-08T14:43:42.948Z,16.53
2018-06-08T14:46:11.878Z,18.60
2018-06-08T14:48:40.747Z,15.37
2018-06-08T14:51:09.679Z,15.23
2018-06-08T14:53:38.589Z,16.90
2018-06-08T14:56:07.647Z,16.03
2018-06-08T14:58:36.519Z,13.00
2018-06-08T15:01:05.863Z,13.20
2018-06-08T15:03:34.711Z,14.87
2018-06-08T15:06:03.614Z,13.77
2018-06-08T15:08:32.550Z,14.40
2018-06-08T15:11:01.434Z,15.03
2018-06-08T15:13:30.272Z,14.43
2018-06-08T15:15:59.163Z,14.97
2018-06-08T15:18:28.050Z,13.53
2018-06-08T15:20:56.980Z,13.67
2018-06-08T15:23:25.865Z,13.33
2018-06-08T15:25:54.726Z,10.60
2018-06-08T15:28:23.613Z,10.97
2018-06-08T15:30:52.474Z,11.00
2018-06-08T15:33:21.412Z,9.50
2018-06-08T15:35:50.357Z,11.43
2018-06-08T15:38:19.295Z,10.70
2018-06-08T15:40:48.164Z,12.47
2018-06-08T15:43:17.174Z,9.83
2018-06-08T15:45:46.010Z,10.77
2018-06-08T15:48:14.901Z,10.63
2018-06-08T15:50:43.987Z,10.93
2018-06-08T15:53:12.909Z,9.17
2018-06-08T15:55:41.908Z,8.80
2018-06-08T15:58:10.872Z,10.47
2018-06-08T16:00:39.776Z,10.27
2018-06-08T16:03:08.714Z,10.07
2018-06-08T16:05:37.636Z,11.23
2018-06-08T16:08:06.657Z,9.00
2018-06-08T16:10:35.572Z,9.63
2018-06-08T16:13:04.444Z,7.73
2018-06-08T16:15:33.379Z,8.47
2018-06-08T16:18:02.313Z,9.17
2018-06-08T16:20:31.232Z,8.07
2018-06-08T16:23:00.160Z,9.40
2018-06-08T16:25:29.304Z,8.07
2018-06-08T16:27:58.260Z,8.03
2018-06-08T16:30:27.212Z,8.43
2018-06-08T16:32:56.094Z,7.23
2018-06-08T16:35:24.948Z,7.83
2018-06-08T16:37:53.806Z,7.60
2018-06-08T16:40:22.845Z,7.70
2018-06-08T16:42:51.744Z,8.40
2018-06-08T16:45:20.675Z,6.97
2018-06-08T16:47:49.654Z,6.97
2018-06-08T16:50:18.520Z,6.83
2018-06-08T16:52:47.444Z,7.30
2018-06-08T16:55:16.321Z,6.90
2018-06-08T16:57:45.244Z,7.50
2018-06-08T17:00:14.069Z,8.00
2018-06-08T17:02:42.957Z,7.27
2018-06-08T17:05:12.553Z,8.20
2018-06-08T17:07:41.703Z,7.80
2018-06-08T17:10:10.570Z,7.97
2018-06-08T17:12:39.633Z,7.80
2018-06-08T17:15:08.744Z,7.40
2018-06-08T17:17:37.611Z,7.10
2018-06-08T17:20:06.488Z,7.10
2018-06-08T17:22:35.822Z,7.00
2018-06-08T17:25:04.685Z,6.10
2018-06-08T17:27:33.633Z,7.00
2018-06-08T17:30:02.556Z,6.53
2018-06-08T17:32:31.454Z,6.77
2018-06-08T17:35:00.305Z,7.20
2018-06-08T17:37:29.304Z,7.17
2018-06-08T17:39:58.381Z,6.70
2018-06-08T17:42:27.364Z,6.87
2018-06-08T17:44:56.233Z,8.53
2018-06-08T17:47:25.146Z,8.03
2018-06-08T17:49:54.066Z,8.37
2018-06-08T17:52:22.916Z,9.87
2018-06-08T17:54:52.032Z,8.90
2018-06-08T17:57:21.021Z,9.00
2018-06-08T17:59:50.065Z,7.87
2018-06-08T18:02:19.084Z,9.03
2018-06-08T18:04:48.106Z,9.00
2018-06-08T18:07:17.063Z,8.90
2018-06-08T18:09:46.131Z,8.53
2018-06-08T18:12:15.012Z,10.20
2018-06-08T18:14:44.001Z,9.97
2018-06-08T18:17:12.918Z,9.37
2018-06-08T18:19:41.785Z,9.17
2018-06-08T18:22:10.700Z,9.53
2018-06-08T18:24:39.800Z,9.03
2018-06-08T18:27:08.682Z,9.83
2018-06-08T18:29:38.233Z,9.20
2018-06-08T18:32:07.216Z,9.40
2018-06-08T18:34:36.119Z,9.77
2018-06-08T18:37:05.385Z,8.60
2018-06-08T18:39:34.397Z,9.70
2018-06-08T18:42:02.984Z,9.63
2018-06-08T18:44:31.559Z,9.77
2018-06-08T18:47:01.014Z,7.70
2018-06-08T18:49:29.955Z,9.07
2018-06-08T18:51:59.674Z,9.43
2018-06-08T18:54:28.791Z,9.30
2018-06-08T18:56:57.866Z,9.20
2018-06-08T18:59:26.935Z,8.37
2018-06-08T19:01:56.003Z,9.97
2018-06-08T19:04:25.715Z,8.77
2018-06-08T19:06:54.698Z,9.93
2018-06-08T19:09:23.551Z,9.80
2018-06-08T19:11:52.489Z,8.23
2018-06-08T19:14:21.232Z,10.13
2018-06-08T19:16:50.294Z,11.20
2018-06-08T19:19:18.944Z,7.53
2018-06-08T19:21:47.964Z,11.43
2018-06-08T19:24:17.351Z,11.43
2018-06-08T19:26:47.042Z,11.27
2018-06-08T19:29:16.081Z,11.30
2018-06-08T19:31:45.180Z,10.83
2018-06-08T19:34:14.260Z,11.87
2018-06-08T19:36:43.404Z,12.50
2018-06-08T19:39:13.075Z,12.77
2018-06-08T19:41:42.070Z,11.77
2018-06-08T19:44:11.036Z,15.13
2018-06-08T19:46:39.907Z,16.23
2018-06-08T19:49:08.722Z,13.07
2018-06-08T19:51:38.007Z,14.40
2018-06-08T19:54:07.214Z,13.70
2018-06-08T19:56:36.180Z,22.37
2018-06-08T19:59:05.150Z,14.47
2018-06-08T20:01:34.040Z,12.53
2018-06-08T20:04:03.261Z,13.07
2018-06-08T20:06:32.273Z,13.23
2018-06-08T20:09:01.549Z,11.90
2018-06-08T20:11:31.054Z,13.07
2018-06-08T20:14:00.302Z,12.80
2018-06-08T20:16:29.495Z,13.60
2018-06-08T20:18:58.774Z,12.67
2018-06-08T20:21:28.026Z,13.77
2018-06-08T20:23:58.177Z,13.67
2018-06-08T20:26:27.295Z,13.00
2018-06-08T20:28:56.651Z,14.07
2018-06-08T20:31:25.571Z,15.03
2018-06-08T20:33:54.432Z,14.30
2018-06-08T20:36:23.260Z,14.93
2018-06-08T20:38:52.148Z,14.67
2018-06-08T20:41:21.937Z,14.70
2018-06-08T20:43:50.869Z,15.87
2018-06-08T20:46:19.915Z,14.30
2018-06-08T20:48:48.827Z,15.50
2018-06-08T20:51:17.708Z,16.50
2018-06-08T20:53:46.594Z,15.43
2018-06-08T20:56:15.597Z,16.73
2018-06-08T20:58:44.605Z,15.33
2018-06-08T21:01:13.758Z,15.70
2018-06-08T21:03:42.634Z,15.73
2018-06-08T21:06:12.257Z,16.13
2018-06-08T21:08:41.184Z,15.97
2018-06-08T21:11:10.159Z,16.63
2018-06-08T21:13:39.091Z,15.63
2018-06-08T21:16:08.038Z,13.60
2018-06-08T21:18:36.908Z,15.80
2018-06-08T21:21:05.904Z,16.00
2018-06-08T21:23:34.856Z,14.47
2018-06-08T21:26:03.869Z,13.17
2018-06-08T21:28:32.730Z,16.20
2018-06-08T21:31:01.643Z,18.77
2018-06-08T21:33:30.540Z,19.47
2018-06-08T21:35:59.415Z,16.30
2018-06-08T21:38:28.284Z,16.87
2018-06-08T21:40:57.238Z,27.03
2018-06-08T21:43:26.085Z,19.10
2018-06-08T21:45:54.697Z,18.97
2018-06-08T21:48:23.617Z,20.07
2018-06-08T21:50:52.534Z,14.63
2018-06-08T21:53:21.418Z,18.00
2018-06-08T21:55:50.251Z,19.87
2018-06-08T21:58:19.157Z,18.70
2018-06-08T22:00:48.065Z,21.13
2018-06-08T22:03:16.953Z,16.17
2018-06-08T22:05:45.849Z,17.13
2018-06-08T22:08:14.771Z,17.60
2018-06-08T22:10:43.646Z,14.87
2018-06-08T22:13:12.493Z,17.03
2018-06-08T22:15:41.354Z,17.93
2018-06-08T22:18:10.284Z,17.53
2018-06-08T22:20:39.226Z,18.30
2018-06-08T22:23:08.073Z,17.57
2018-06-08T22:25:36.915Z,18.93
2018-06-08T22:28:05.769Z,15.63
2018-06-08T22:30:34.694Z,18.73
2018-06-08T22:33:03.772Z,19.50
2018-06-08T22:35:32.633Z,19.77
2018-06-08T22:38:01.497Z,19.60
2018-06-08T22:40:30.391Z,18.83
2018-06-08T22:42:59.286Z,20.53
2018-06-08T22:45:28.148Z,20.17
2018-06-08T22:47:57.044Z,20.27
2018-06-08T22:50:25.896Z,20.73
2018-06-08T22:52:54.820Z,21.43
2018-06-08T22:55:23.729Z,20.07
2018-06-08T22:57:52.578Z,21.17
2018-06-08T23:00:21.553Z,20.27
2018-06-08T23:02:50.424Z,20.83
2018-06-08T23:05:19.367Z,21.57
2018-06-08T23:07:48.252Z,21.30
2018-06-08T23:10:17.098Z,20.47
2018-06-08T23:12:46.021Z,22.00
2018-06-08T23:15:14.875Z,19.90
2018-06-08T23:17:43.796Z,20.70
2018-06-08T23:20:12.655Z,20.80
2018-06-08T23:22:41.606Z,19.53
2018-06-08T23:25:10.456Z,21.27
2018-06-08T23:27:39.427Z,19.77
2018-06-08T23:30:08.342Z,20.13
2018-06-08T23:32:37.354Z,19.97
2018-06-08T23:35:06.450Z,19.73
2018-06-08T23:37:35.438Z,20.20
2018-06-08T23:40:04.450Z,20.23
2018-06-08T23:42:33.570Z,19.47
2018-06-08T23:45:02.262Z,19.23
2018-06-08T23:47:31.903Z,19.03
2018-06-08T23:50:00.831Z,18.70
2018-06-08T23:52:29.693Z,19.03
2018-06-08T23:54:58.578Z,18.47
2018-06-08T23:57:27.494Z,18.83
2018-06-08T23:59:56.413Z,18.87
